createdAt,value
2022-11-07T00:02:38.720Z,97524.94
2022-11-07T00:07:40.177Z,97521.53
2022-11-07T00:12:41.587Z,97532.50
2022-11-07T00:17:42.954Z,97530.31
2022-11-07T00:22:44.347Z,97520.47
2022-11-07T00:27:45.794Z,97532.78
2022-11-07T00:32:47.258Z,97532.13
2022-11-07T00:37:48.633Z,97536.78
2022-11-07T00:42:50.004Z,97542.94
2022-11-07T00:47:51.994Z,97544.13
2022-11-07T00:52:53.364Z,97534.50
2022-11-07T00:57:55.760Z,97537.63
2022-11-07T01:03:16.204Z,97541.44
2022-11-07T01:08:17.743Z,97545.38
2022-11-07T01:13:19.438Z,97541.50
2022-11-07T01:18:21.068Z,97525.16
2022-11-07T01:23:22.923Z,97517.53
2022-11-07T01:28:24.352Z,97530.09
2022-11-07T01:33:25.707Z,97525.47
2022-11-07T01:38:27.113Z,97512.91
2022-11-07T01:43:42.126Z,97499.78
2022-11-07T01:48:51.411Z,97505.09
2022-11-07T01:53:54.294Z,97511.00
2022-11-07T01:58:56.477Z,97514.94
2022-11-07T02:03:59.004Z,97512.91
2022-11-07T02:09:00.392Z,97532.34
2022-11-07T02:14:01.791Z,97528.47
2022-11-07T02:19:08.463Z,97507.97
2022-11-07T02:24:09.782Z,97521.06
2022-11-07T02:29:12.838Z,97515.38
2022-11-07T02:34:14.220Z,97527.00
2022-11-07T02:39:15.770Z,97522.75
2022-11-07T02:44:18.260Z,97522.19
2022-11-07T02:49:19.633Z,97523.91
2022-11-07T02:54:20.996Z,97512.97
2022-11-07T02:59:26.764Z,97519.81
2022-11-07T03:04:28.589Z,97519.34
2022-11-07T03:09:29.959Z,97529.63
2022-11-07T03:14:31.420Z,97526.25
2022-11-07T03:19:32.879Z,97526.63
2022-11-07T03:24:34.292Z,97543.59
2022-11-07T03:29:35.658Z,97556.41
2022-11-07T03:34:37.558Z,97557.88
2022-11-07T03:39:38.981Z,97557.22
2022-11-07T03:44:40.488Z,97573.19
2022-11-07T03:49:41.842Z,97582.81
2022-11-07T03:54:43.248Z,97600.25
2022-11-07T03:59:44.633Z,97603.94
2022-11-07T04:04:46.018Z,97613.56
2022-11-07T04:09:47.381Z,97612.53
2022-11-07T04:15:07.143Z,97614.56
2022-11-07T04:20:09.239Z,97617.16
2022-11-07T04:25:10.798Z,97617.25
2022-11-07T04:30:26.728Z,97624.84
2022-11-07T04:35:31.272Z,97637.09
2022-11-07T04:40:32.673Z,97638.03
2022-11-07T04:45:34.388Z,97632.59
2022-11-07T04:50:35.760Z,97642.78
2022-11-07T04:55:37.302Z,97641.72
2022-11-07T05:00:38.785Z,97642.13
2022-11-07T05:05:40.254Z,97637.91
2022-11-07T05:10:41.947Z,97643.72
2022-11-07T05:15:43.534Z,97644.19
2022-11-07T05:20:44.925Z,97656.88
2022-11-07T05:25:50.419Z,97658.75
2022-11-07T05:30:51.790Z,97659.00
2022-11-07T05:35:53.171Z,97658.41
2022-11-07T05:40:54.534Z,97664.94
2022-11-07T05:46:00.526Z,97655.81
2022-11-07T05:51:02.262Z,97661.19
2022-11-07T05:56:03.893Z,97673.22
2022-11-07T06:01:06.507Z,97675.25
2022-11-07T06:06:07.987Z,97691.88
2022-11-07T06:11:09.431Z,97700.19
2022-11-07T06:16:10.788Z,97693.56
2022-11-07T06:21:12.170Z,97691.25
2022-11-07T06:26:13.679Z,97687.72
2022-11-07T06:31:15.055Z,97697.66
2022-11-07T06:36:16.477Z,97703.13
2022-11-07T06:41:17.861Z,97699.78
2022-11-07T06:46:22.545Z,97701.59
2022-11-07T06:51:24.016Z,97699.72
2022-11-07T06:56:25.383Z,97710.28
2022-11-07T07:01:26.928Z,97714.56
2022-11-07T07:06:28.427Z,97711.88
2022-11-07T07:11:29.803Z,97710.81
2022-11-07T07:16:31.821Z,97728.41
2022-11-07T07:21:33.314Z,97736.63
2022-11-07T07:26:34.692Z,97750.19
2022-11-07T07:31:36.100Z,97751.78
2022-11-07T07:36:37.504Z,97761.38
2022-11-07T07:41:40.306Z,97755.69
2022-11-07T07:46:42.017Z,97734.00
2022-11-07T07:51:43.410Z,97743.16
2022-11-07T07:56:44.874Z,97740.25
2022-11-07T08:01:48.024Z,97745.16
2022-11-07T08:06:52.394Z,97740.03
2022-11-07T08:11:53.833Z,97749.91
2022-11-07T08:16:55.387Z,97754.75
2022-11-07T08:21:56.952Z,97761.66
2022-11-07T08:26:58.353Z,97768.94
2022-11-07T08:31:59.715Z,97771.63
2022-11-07T08:37:01.080Z,97774.19
2022-11-07T08:42:02.475Z,97776.03
2022-11-07T08:47:08.459Z,97771.88
2022-11-07T08:52:10.137Z,97779.41
2022-11-07T08:57:11.746Z,97776.91
2022-11-07T09:07:38.229Z,97779.56
2022-11-07T09:12:47.729Z,97773.13
2022-11-07T09:17:50.913Z,97776.97
2022-11-07T09:22:56.602Z,97769.06
2022-11-07T09:28:03.465Z,97769.38
2022-11-07T09:33:04.894Z,97771.50
2022-11-07T09:38:06.264Z,97788.28
2022-11-07T09:43:29.806Z,97780.38
2022-11-07T09:48:49.142Z,97784.81
2022-11-07T09:53:58.537Z,97772.78
2022-11-07T09:59:12.738Z,97771.22
2022-11-07T10:04:24.890Z,97773.31
2022-11-07T10:09:39.732Z,97776.25
2022-11-07T10:14:55.033Z,97779.13
2022-11-07T10:20:19.220Z,97770.88
2022-11-07T10:25:35.304Z,97773.31
2022-11-07T10:30:37.507Z,97781.19
2022-11-07T10:35:44.476Z,97776.25
2022-11-07T10:40:48.190Z,97781.59
2022-11-07T10:45:53.187Z,97778.72
2022-11-07T10:50:55.975Z,97782.06
2022-11-07T10:55:58.151Z,97775.06
2022-11-07T11:01:08.617Z,97783.09
2022-11-07T11:06:19.310Z,97776.72
2022-11-07T11:11:20.734Z,97776.75
2022-11-07T11:16:30.947Z,97759.84
2022-11-07T11:21:43.063Z,97756.38
2022-11-07T11:26:48.878Z,97762.38
2022-11-07T11:31:55.313Z,97760.75
2022-11-07T11:37:06.244Z,97766.56
2022-11-07T11:42:25.378Z,97757.91
2022-11-07T11:47:37.926Z,97762.47
2022-11-07T11:52:39.831Z,97768.00
2022-11-07T11:57:59.025Z,97758.91
2022-11-07T12:03:27.663Z,97761.16
2022-11-07T12:08:58.685Z,97774.31
2022-11-07T12:14:15.157Z,97763.41
2022-11-07T12:19:22.734Z,97767.28
2022-11-07T12:24:42.622Z,97756.56
2022-11-07T12:30:15.376Z,97756.56
2022-11-07T12:35:37.541Z,97747.06
2022-11-07T12:40:53.475Z,97746.03
2022-11-07T12:46:19.320Z,97743.97
2022-11-07T12:51:39.134Z,97749.53
2022-11-07T12:56:42.071Z,97756.94
2022-11-07T13:02:02.421Z,97757.78
2022-11-07T13:07:14.725Z,97754.88
2022-11-07T13:12:28.402Z,97765.19
2022-11-07T13:17:40.045Z,97750.97
2022-11-07T13:22:41.556Z,97761.84
2022-11-07T13:27:59.492Z,97750.53
2022-11-07T13:33:01.976Z,97767.84
2022-11-07T13:38:11.551Z,97752.41
2022-11-07T13:43:41.876Z,97761.06
2022-11-07T13:48:52.271Z,97761.28
2022-11-07T13:54:05.080Z,97768.53
2022-11-07T13:59:15.949Z,97762.13
2022-11-07T14:04:23.104Z,97769.34
2022-11-07T14:09:28.722Z,97779.22
2022-11-07T14:14:30.259Z,97794.41
2022-11-07T14:19:32.528Z,97783.28
2022-11-07T14:24:37.100Z,97786.16
2022-11-07T14:29:38.610Z,97790.25
2022-11-07T14:34:45.701Z,97789.81
2022-11-07T14:39:48.975Z,97784.03
2022-11-07T14:44:56.626Z,97783.00
2022-11-07T14:50:01.549Z,97782.38
2022-11-07T14:55:31.105Z,97777.44
2022-11-07T15:00:35.944Z,97783.56
2022-11-07T15:11:23.619Z,97777.59
2022-11-07T15:16:34.110Z,97781.28
2022-11-07T15:21:38.373Z,97779.66
2022-11-07T15:26:40.093Z,97791.13
2022-11-07T15:31:48.622Z,97790.88
2022-11-07T15:36:53.279Z,97783.41
2022-11-07T15:41:55.041Z,97788.97
2022-11-07T15:46:56.593Z,97785.25
2022-11-07T15:51:58.222Z,97787.56
2022-11-07T15:57:03.642Z,97790.06
2022-11-07T16:02:10.386Z,97787.75
2022-11-07T16:07:18.142Z,97786.69
2022-11-07T16:12:19.711Z,97792.81
2022-11-07T16:17:21.108Z,97799.81
2022-11-07T16:22:22.772Z,97808.25
2022-11-07T16:27:24.188Z,97817.53
2022-11-07T16:32:25.553Z,97817.53
2022-11-07T16:37:34.261Z,97814.00
2022-11-07T16:42:44.502Z,97814.00
2022-11-07T16:48:27.437Z,97817.53
2022-11-07T16:54:09.872Z,97822.66
2022-11-07T17:04:49.612Z,97825.94
2022-11-07T17:11:03.486Z,97824.66
2022-11-07T17:16:25.323Z,97830.22
2022-11-07T17:22:30.073Z,97827.53
2022-11-07T17:27:57.494Z,97832.63
2022-11-07T17:33:48.161Z,97836.84
2022-11-07T17:39:49.178Z,97839.59
2022-11-07T17:51:58.276Z,97845.88
2022-11-07T18:10:23.944Z,97841.41
2022-11-07T18:16:29.413Z,97853.50
2022-11-07T18:22:06.560Z,97838.13
2022-11-07T18:33:51.776Z,97849.03
2022-11-07T18:39:25.444Z,97845.63
2022-11-07T18:44:32.660Z,97843.84
2022-11-07T18:50:35.848Z,97846.94
2022-11-07T18:55:47.352Z,97843.00
2022-11-07T19:01:05.824Z,97844.22
2022-11-07T19:06:25.411Z,97844.06
2022-11-07T19:11:44.296Z,97846.78
2022-11-07T19:23:04.629Z,97854.66
2022-11-07T19:28:32.558Z,97848.28
2022-11-07T19:33:37.115Z,97846.00
2022-11-07T19:40:41.646Z,97836.50
2022-11-07T19:46:03.405Z,97838.72
2022-11-07T20:16:24.970Z,97854.19
2022-11-07T20:22:12.157Z,97850.88
2022-11-07T20:29:26.995Z,97855.94
2022-11-07T20:33:40.665Z,97863.56
2022-11-07T20:39:21.560Z,97866.44
2022-11-07T20:44:43.518Z,97870.03
2022-11-07T20:49:51.198Z,97876.53
2022-11-07T20:55:27.613Z,97884.91
2022-11-07T21:00:58.166Z,97884.81
2022-11-07T21:06:11.685Z,97888.56
2022-11-07T21:11:18.450Z,97881.75
2022-11-07T21:17:23.111Z,97877.34
2022-11-07T21:24:26.406Z,97881.53
2022-11-07T21:29:28.094Z,97878.31
2022-11-07T21:34:30.797Z,97885.06
2022-11-07T21:39:32.432Z,97886.50
2022-11-07T21:44:33.825Z,97887.53
2022-11-07T21:49:35.265Z,97890.19
2022-11-07T21:54:36.616Z,97889.38
2022-11-07T21:59:37.981Z,97891.84
2022-11-07T22:04:39.419Z,97900.81
2022-11-07T22:09:40.812Z,97891.59
2022-11-07T22:14:42.862Z,97888.72
2022-11-07T22:19:44.257Z,97888.72
2022-11-07T22:24:45.716Z,97890.28
2022-11-07T22:29:47.308Z,97885.50
2022-11-07T22:34:48.660Z,97887.72
2022-11-07T22:39:50.049Z,97886.41
2022-11-07T22:44:51.527Z,97887.06
2022-11-07T22:49:52.896Z,97888.34
2022-11-07T22:54:54.239Z,97881.00
2022-11-07T22:59:55.601Z,97888.81
2022-11-07T23:04:56.952Z,97887.34
2022-11-07T23:10:00.927Z,97878.50
2022-11-07T23:15:02.589Z,97880.16
2022-11-07T23:20:05.452Z,97881.81
2022-11-07T23:25:07.463Z,97879.59
2022-11-07T23:30:09.209Z,97873.72
2022-11-07T23:35:10.565Z,97860.00
2022-11-07T23:40:12.462Z,97854.91
2022-11-07T23:45:32.387Z,97863.41
2022-11-07T23:50:52.260Z,97870.19
2022-11-07T23:55:53.656Z,97867.84
